• Join FlightAware (Why Join?)
  • Login
  • US Flag 
01:22AM EDT


 

Airport Tracker/Info


-or-


 

Live Flight TrackerFlight Track Log ✈ SWA2490 ✈ 05-Jul-2013 ✈ KFNT - KBWI

Flight Track Log - Related Links

Times and Time Zones

All times are in EDT time to prevent confusion due to time zone crossing. See the SWA2490 flight status page for this flight to view local times or setup timezone preferences in your user account.

Time Position Orientation Groundspeed Altitude Reporting Facility
EDT Latitude Longitude Course Direction KTS MPH feet Rate Location/Type
06:38PM 42.9589 -83.6669 144° Southeast 218 251 3,300  Level Cleveland Center
06:39PM 42.9944 -83.5750 62° Northeast 258 297 7,400 3,720 Climbing Cleveland Center
06:40PM 43.0308 -83.4633 66° East 277 319 10,800 3,540 Climbing Cleveland Center
06:41PM 43.0750 -83.3544 61° Northeast 296 341 14,500 2,880 Climbing Cleveland Center
06:42PM 43.1008 -83.2275 74° East 313 360 16,600 2,160 Climbing Cleveland Center
06:44PM 42.4506 -83.2173 144° Southeast  Level FlightAware Approximate
06:44PM 43.0356 -83.1061 150° Southeast  Level Estimated
06:44PM 42.9172 -83.0553 150° Southeast 328 377 21,000  Level Cleveland Center
06:45PM 42.8167 -82.9750 150° Southeast 379 436 23,800 2,400 Climbing Cleveland Center
06:46PM 42.7142 -82.8919 149° Southeast 412 474 25,900 2,100 Climbing Cleveland Center
06:47PM 42.6117 -82.8064 148° Southeast 430 495 28,100 2,040 Climbing Cleveland Center
06:48PM 42.5050 -82.7236 150° Southeast 440 506 30,000 1,860 Climbing Cleveland Center
06:49PM 42.4000 -82.6414 150° Southeast 440 506 31,900 1,800 Climbing Cleveland Center
06:50PM 42.2953 -82.5567 149° Southeast 440 506 33,600 1,800 Climbing Cleveland Center
06:51PM 42.1925 -82.4750 150° Southeast 440 506 35,500 1,680 Climbing Cleveland Center
06:52PM 42.1000 -82.3939 147° Southeast 431 496 37,000 720 Climbing Cleveland Center
06:53PM 41.9886 -82.3122 151° Southeast 431 496 37,000  Level Cleveland Center
06:54PM 41.8833 -82.2342 151° Southeast 431 496 37,000  Level Cleveland Center
06:55PM 41.7803 -82.1536 150° Southeast 431 496 37,000  Level Cleveland Center
06:56PM 41.6894 -82.0819 149° Southeast 436 502 37,000  Level Cleveland Center
06:57PM 41.5844 -81.9989 149° Southeast 436 502 37,000  Level Cleveland Center
06:58PM 41.4897 -81.8886 139° Southeast 450 518 37,000  Level Cleveland Center
06:59PM 41.4033 -81.7900 139° Southeast 450 518 37,000  Level Cleveland Center
07:00PM 41.2961 -81.6581 137° Southeast 458 527 37,000  Level Cleveland Center
07:01PM 41.1992 -81.5433 138° Southeast 463 533 37,000  Level Cleveland Center
07:02PM 41.0856 -81.4206 141° Southeast 469 540 37,000  Level Cleveland Center
07:03PM 40.9986 -81.3203 139° Southeast 479 551 37,000  Level Cleveland Center
07:04PM 40.8992 -81.2067 139° Southeast 474 545 37,000  Level Cleveland Center
07:05PM 40.8019 -81.0961 139° Southeast 469 540 37,000  Level Cleveland Center
07:06PM 40.7086 -80.9858 138° Southeast 463 533 37,000  Level Cleveland Center
07:07PM 40.6131 -80.8758 139° Southeast 463 533 37,000  Level Cleveland Center
07:08PM 40.5172 -80.7689 140° Southeast 458 527 37,000  Level Cleveland Center
07:09PM 40.4172 -80.6567 139° Southeast 458 527 37,000 -300 Level Cleveland Center
07:10PM 40.3194 -80.5478 140° Southeast 458 527 36,400 -840 Descending Cleveland Center
07:11PM 40.2214 -80.4389 140° Southeast 458 527 35,400 -720 Descending Cleveland Center
07:12PM 40.1128 -80.3225 141° Southeast 452 520 35,000 -240 Descending Cleveland Center
07:13PM 40.0269 -80.2225 138° Southeast 452 520 35,000  Level Cleveland Center
07:14PM 39.9617 -80.0522 117° Southeast 474 545 35,000  Level Cleveland Center
07:17PM 39.8614 -79.6678 109° East 493 567 35,000 -600 Level Washington Center
07:18PM 39.8192 -79.5006 108° East 493 567 33,000 -2,640 Descending Washington Center
07:19PM 39.7764 -79.3336 108° East 487 560 29,900 -3,300 Descending Washington Center
07:20PM 39.7356 -79.1750 108° East 476 548 26,300 -2,460 Descending Washington Center
07:21PM 39.6942 -79.0192 109° East 470 541 25,000 -660 Descending Washington Center
07:22PM 39.6408 -78.8414 111° Southeast 470 541 25,000  Level Washington Center
07:23PM 39.5969 -78.6806 109° East 475 547 25,000 -720 Level Washington Center
07:24PM 39.5572 -78.5256 108° East 461 531 23,600 -2,340 Descending Washington Center
07:25PM 39.5167 -78.3811 110° East 448 516 20,400 -3,000 Descending Washington Center
07:26PM 39.4783 -78.2400 109° East 426 490 17,600 -2,700 Descending Washington Center
07:27PM 39.4417 -78.1014 109° East 410 472 15,000 -1,320 Descending Washington Center
07:28PM 39.4300 -77.9614 96° East 398 458 15,000  Level Washington Center
07:29PM 39.4350 -77.8083 88° East 404 465 15,000  Level Washington Center
07:30PM 39.4375 -77.6553 89° East 411 473 15,000 -600 Level Washington Center
07:31PM 39.4419 -77.5131 88° East 411 473 13,800 -1,980 Descending Washington Center
07:32PM 39.4442 -77.3786 89° East 389 448 11,100 -1,440 Descending Washington Center
07:33PM 39.4606 -77.2500 81° East 370 426 11,000 -60 Descending Washington Center
07:34PM 39.4833 -77.1333 76° East 383 441 11,000 -480 Level Potomac TRACON
07:35PM 39.5000 -77.0167 79° East 333 383 10,200 -1,020 Descending Potomac TRACON
07:36PM 39.5000 -76.9000 90° East 310 357 9,000 -1,200 Descending Potomac TRACON
07:37PM 39.5167 -76.8000 78° East 308 354 7,800 -1,440 Descending Potomac TRACON
07:38PM 39.5000 -76.6833 100° East 295 339 6,200 -1,440 Descending Potomac TRACON
07:39PM 39.4667 -76.5833 113° Southeast 289 333 5,000 -840 Descending Potomac TRACON
07:40PM 39.4167 -76.5333 142° Southeast 280 322 4,600 -720 Descending Potomac TRACON
07:41PM 39.3333 -76.5000 163° South 266 306 3,600 -840 Descending Potomac TRACON
07:42PM 39.2667 -76.4833 169° South 265 305 3,000 -300 Descending Potomac TRACON
07:43PM 39.2000 -76.4500 159° South 249 287 3,000  Level Potomac TRACON
07:44PM 39.1333 -76.4333 169° South 226 260 3,000  Level Potomac TRACON
07:45PM 39.1167 -76.5000 252° West 217 250 3,000 -300 Level Potomac TRACON
07:46PM 39.1000 -76.5833 256° West 195 224 2,500 -840 Descending Potomac TRACON
07:47PM 39.1167 -76.6167 303° West 150 173 1,300 -1,020 Descending Potomac TRACON
07:48PM 39.1500 -76.6500 322° Northwest 138 159 600 -780 Descending Potomac TRACON